Flight Track Log - Related Links

Times and Time Zones

All times are in EDT time to prevent confusion due to time zone crossing. See the SWA4321 flight status page for this flight to view local times or setup timezone preferences in your user account.

Time Position Orientation Groundspeed Altitude Reporting Facility
EDT Latitude Longitude Course Direction KTS MPH feet Rate Location/Type
10:34PM 38.7667 -90.4000 270° West 148 170 2,100  Level Gateway (St. Louis) TRACON
10:35PM 38.7667 -90.4500 270° West 232 267 3,900 2,409 Climbing Gateway (St. Louis) TRACON
10:36PM 38.6978 -90.5392 225° Southwest 276 318 7,600 2,978 Climbing Kansas City Center
10:37PM 38.6381 -90.6081 222° Southwest 289 333 10,700 3,268 Climbing Kansas City Center
10:38PM 38.5733 -90.6817 222° Southwest 308 354 14,300 2,806 Climbing Kansas City Center
10:39PM 38.5028 -90.7633 222° Southwest 340 391 16,500 2,683 Climbing Kansas City Center
10:40PM 38.4253 -90.8503 221° Southwest 367 422 19,800 3,000 Climbing Kansas City Center
10:41PM 38.3447 -90.9419 222° Southwest 383 441 22,600 2,628 Climbing Kansas City Center
10:42PM 38.2614 -91.0353 221° Southwest 394 453 25,100 2,226 Climbing Kansas City Center
10:43PM 38.1711 -91.1236 218° Southwest 405 466 27,200 2,146 Climbing Kansas City Center
10:44PM 38.0719 -91.2206 218° Southwest 417 480 29,500 2,132 Climbing Kansas City Center
10:45PM 37.9806 -91.3122 218° Southwest 417 480 31,500 2,016 Climbing Kansas City Center
10:46PM 37.8869 -91.4036 218° Southwest 418 481 33,600 1,355 Climbing Kansas City Center
10:47PM 37.7842 -91.5067 218° Southwest 398 458 34,300 1,016 Climbing Kansas City Center
10:48PM 37.6978 -91.5931 218° Southwest 394 453 35,700 836 Climbing Kansas City Center
10:49PM 37.6117 -91.6778 218° Southwest 393 452 36,000 198 Climbing Kansas City Center
10:50PM 37.5267 -91.7611 218° Southwest 390 449 36,100 496 Climbing Kansas City Center
10:51PM 37.4400 -91.8444 217° Southwest 389 448 37,000 432 Climbing Kansas City Center
10:52PM 37.3522 -91.9306 218° Southwest 390 449 37,000 339 Level Kansas City Center
10:53PM 37.2650 -92.0156 218° Southwest 391 450 37,700 1,041 Climbing Kansas City Center
10:54PM 37.1775 -92.1003 218° Southwest 392 451 39,100 1,033 Climbing Kansas City Center
10:55PM 37.0894 -92.1867 218° Southwest 394 453 39,800 439 Climbing Kansas City Center
10:56PM 37.0000 -92.2714 217° Southwest 399 459 40,000 97 Climbing Kansas City Center
10:57PM 36.9092 -92.3589 218° Southwest 403 464 40,000  Level Kansas City Center
10:58PM 36.8372 -92.4250 216° Southwest 405 466 40,000  Level Memphis Center
10:59PM 36.7461 -92.5106 217° Southwest 406 467 40,000  Level Memphis Center
11:00PM 36.6550 -92.5981 218° Southwest 407 468 40,000  Level Memphis Center
11:01PM 36.5642 -92.6836 217° Southwest 407 468 40,000  Level Memphis Center
11:02PM 36.4617 -92.7800 217° Southwest 407 468 40,000  Level Memphis Center
11:03PM 36.3728 -92.8633 217° Southwest 406 467 40,000  Level Memphis Center
11:04PM 36.2839 -92.9469 217° Southwest 404 465 40,000  Level Memphis Center
11:05PM 36.1958 -93.0300 217° Southwest 403 464 40,000  Level Memphis Center
11:06PM 36.1069 -93.1097 216° Southwest 402 463 40,000  Level Memphis Center
11:07PM 36.0183 -93.1933 217° Southwest 402 463 40,000  Level Memphis Center
11:08PM 35.9294 -93.2758 217° Southwest 402 463 40,000  Level Memphis Center
11:09PM 35.8403 -93.3572 217° Southwest 402 463 40,000  Level Memphis Center
11:10PM 35.7519 -93.4394 217° Southwest 402 463 40,000  Level Memphis Center
11:11PM 35.6628 -93.5217 217° Southwest 402 463 40,000  Level Memphis Center
11:12PM 35.5556 -93.6200 217° Southwest 402 463 40,000  Level Memphis Center
11:13PM 35.4667 -93.7011 217° Southwest 402 463 40,000  Level Memphis Center
11:14PM 35.3739 -93.7858 217° Southwest 402 463 40,000  Level Memphis Center
11:15PM 35.2836 -93.8658 216° Southwest 402 463 40,000  Level Memphis Center
11:16PM 35.1942 -93.9478 217° Southwest 401 461 40,000  Level Memphis Center
11:17PM 35.1053 -94.0278 216° Southwest 399 459 40,000  Level Memphis Center
11:18PM 35.0208 -94.1044 217° Southwest 399 459 40,000  Level Memphis Center
11:19PM 34.9325 -94.1828 216° Southwest 399 459 40,000  Level Memphis Center
11:21PM 34.8436 -94.2614 216° Southwest 398 458 40,000  Level Memphis Center
11:22PM 34.7553 -94.3408 216° Southwest 398 458 40,000  Level Memphis Center
11:23PM 34.6667 -94.4197 216° Southwest 398 458 40,000  Level Memphis Center
11:24PM 34.5594 -94.5156 216° Southwest 398 458 40,000  Level Memphis Center
11:25PM 34.4703 -94.5939 216° Southwest 398 458 40,000  Level Memphis Center
11:26PM 34.3800 -94.6733 216° Southwest 398 458 40,000  Level Memphis Center
11:27PM 34.2906 -94.7514 216° Southwest 398 458 40,000  Level Memphis Center
11:28PM 34.1847 -94.8456 216° Southwest 398 458 40,000  Level Fort Worth Center
11:29PM 34.0947 -94.9258 216° Southwest 400 460 40,000  Level Fort Worth Center
11:30PM 34.0067 -95.0008 215° Southwest 394 453 40,000  Level Fort Worth Center
11:31PM 33.9169 -95.0789 216° Southwest 397 457 40,000  Level Fort Worth Center
11:32PM 33.8272 -95.1569 216° Southwest 397 457 40,000  Level Fort Worth Center
11:33PM 33.7367 -95.2350 216° Southwest 399 459 40,000  Level Fort Worth Center
11:34PM 33.6450 -95.3136 216° Southwest 402 463 40,000  Level Fort Worth Center
11:35PM 33.5536 -95.3928 216° Southwest 405 466 40,000  Level Fort Worth Center
11:36PM 33.4636 -95.4700 216° Southwest 400 460 40,000  Level Fort Worth Center
11:37PM 33.3542 -95.5642 216° Southwest 400 460 40,000  Level Fort Worth Center
11:38PM 33.2661 -95.6400 216° Southwest 397 457 40,000  Level Fort Worth Center
11:39PM 33.1750 -95.7172 215° Southwest 398 458 40,000  Level Fort Worth Center
11:40PM 33.0828 -95.7950 215° Southwest 401 461 40,000  Level Fort Worth Center
11:41PM 32.9881 -95.8739 215° Southwest 408 470 40,000  Level Fort Worth Center
11:42PM 32.8961 -95.9528 216° Southwest 409 471 40,000  Level Fort Worth Center
11:43PM 32.8031 -96.0325 216° Southwest 409 471 40,000  Level Fort Worth Center
11:44PM 32.7075 -96.1119 215° Southwest 414 476 40,000  Level Fort Worth Center
11:45PM 32.6133 -96.1900 215° Southwest 414 476 40,000  Level Fort Worth Center
11:46PM 32.5206 -96.2686 216° Southwest 412 474 40,000  Level Fort Worth Center
11:47PM 32.4253 -96.3472 215° Southwest 413 475 40,000  Level Fort Worth Center
11:48PM 32.3328 -96.4250 215° Southwest 411 473 40,000  Level Fort Worth Center
11:49PM 32.2400 -96.5019 215° Southwest 410 472 40,000  Level Fort Worth Center
11:50PM 32.1297 -96.5931 215° Southwest 405 466 40,000  Level Fort Worth Center
11:51PM 32.0397 -96.6683 215° Southwest 399 459 40,000  Level Fort Worth Center
11:52PM 31.9489 -96.7417 214° Southwest 398 458 40,000  Level Fort Worth Center
11:53PM 31.8572 -96.8175 215° Southwest 399 459 40,000  Level Fort Worth Center
11:54PM 31.7675 -96.8911 215° Southwest 398 458 40,000  Level Fort Worth Center
11:55PM 31.6769 -96.9633 214° Southwest 396 456 40,000  Level Fort Worth Center
11:56PM 31.5875 -97.0369 215° Southwest 394 453 40,000  Level Fort Worth Center
11:57PM 31.4922 -97.0997 209° Southwest 394 453 40,000  Level Fort Worth Center
11:58PM 31.3875 -97.1367 197° South 395 455 40,000 -443 Level Fort Worth Center
11:59PM 31.2842 -97.1775 199° South 393 452 39,100 -885 Descending Fort Worth Center
12:00AM 31.1753 -97.2186 198° South 402 463 38,200 -934 Descending Fort Worth Center
12:01AM 31.0722 -97.2689 203° Southwest 402 463 37,200 -885 Descending Fort Worth Center
12:02AM 30.9717 -97.3206 204° Southwest 396 456 36,400 -885 Descending Fort Worth Center
12:03AM 30.8664 -97.3756 204° Southwest 407 468 35,400 -1,033 Descending Fort Worth Center
12:04AM 30.7469 -97.4389 205° Southwest 396 456 34,300 -1,426 Descending Fort Worth Center
12:05AM 30.6478 -97.4881 203° Southwest 392 451 32,500 -2,361 Descending Fort Worth Center
12:06AM 30.5536 -97.5336 203° Southwest 387 445 29,500 -2,508 Descending Fort Worth Center
12:07AM 30.4556 -97.5839 204° Southwest 386 444 27,400 -2,066 Descending Fort Worth Center
12:08AM 30.3531 -97.6367 204° Southwest 395 455 25,300 -2,410 Descending Fort Worth Center
12:09AM 30.2503 -97.6878 203° Southwest 397 457 22,500 -2,727 Descending Fort Worth Center
12:10AM 30.1492 -97.7364 203° Southwest 397 457 19,800 -2,880 Descending Fort Worth Center
12:11AM 30.0731 -97.7742 203° Southwest 378 435 17,700 -2,854 Descending Houston Center
12:12AM 30.0089 -97.8064 204° Southwest 369 425 15,900 -2,529 Descending Houston Center
12:13AM 29.9158 -97.8528 203° Southwest 366 421 13,400 -2,548 Descending Houston Center
12:13AM 29.8950 -97.8669 211° Southwest 363 418 12,800 -1,574 Descending Houston Center
12:14AM 29.8439 -97.9267 225° Southwest 342 394 11,800 -1,180 Descending Houston Center
12:14AM 29.8292 -97.9453 228° Southwest 328 377 11,600 -1,216 Descending Houston Center
12:15AM 29.7728 -98.0150 227° Southwest 289 333 10,300 -1,556 Descending Houston Center
12:16AM 29.7306 -98.0667 227° Southwest 293 337 8,800 -1,900 Descending Houston Center
12:16AM 29.7161 -98.0822 223° Southwest 292 336 8,400 -1,500 Descending Houston Center
12:17AM 29.6733 -98.1369 228° Southwest 299 344 7,300 -1,377 Descending Houston Center
12:17AM 29.6597 -98.1542 228° Southwest 300 345 7,000 -1,279 Descending Houston Center
12:18AM 29.6178 -98.2044 226° Southwest 296 341 6,000 -1,000 Descending Houston Center
12:18AM 29.6053 -98.2208 229° Southwest 288 331 6,000  Level Houston Center
12:19AM 29.5658 -98.2681 226° Southwest 276 318 6,000  Level Houston Center
12:19AM 29.5542 -98.2825 227° Southwest 266 306 6,000  Level Houston Center
12:20AM 29.5169 -98.3272 226° Southwest 258 297 6,000 -197 Level Houston Center
12:20AM 29.5050 -98.3411 225° Southwest 248 285 5,800 -885 Descending Houston Center
12:21AM 29.4703 -98.3844 227° Southwest 246 283 5,100 -800 Descending Houston Center
12:21AM 29.4597 -98.3947 220° Southwest 227 261 5,000 -1,000 Descending Houston Center
12:22AM 29.4292 -98.4331 228° Southwest 214 246 4,100 -1,234 Descending Houston Center
12:23AM 29.4311 -98.4786 273° West 149 171 2,800 -893 Descending Houston Center
12:24AM 29.4625 -98.4950 336° Northwest 124 143 2,300 -595 Descending Houston Center
12:25AM 29.4917 -98.4983 354° North 111 128 1,600 -694 Descending Houston Center
12:26AM 29.5181 -98.4756 37° Northeast 121 139 900 -689 Descending Houston Center

Login

Don't have an account? Register now (free) for customized features, flight alerts, and more!